Pagina principale
METAR-TAF:

METAR-TAF

Aeroporti :

Contea di Ocean, New Jersey, Stati Uniti

latitudine: 39-55-39N, longitudine: 074-17-33W, altezza: 25 m

Osservazione

Il bollettino è stato emesso 29 minuti fa, alle 22:56 UTC
Vento 20 kt da nord-ovest con raffiche fino a 30 kt
Temperature 3°C
Umidità 65%
Pressione 1019 hPa
Visibilità: 16.1 km
Nuvoloso ad un'altezza di 3900 ft
Cielo coperto ad un'altezza di 4600 ft

METAR: KMJX 182256Z AUTO 31020G30KT 10SM BKN039 OVC046 03/M03 A3009 RMK AO2 PK WND 31030/2249 SLP195 T00331033

Ora: 18:25 (23:25 UTC)


TAF: mancante

Osservazioni e previsioni meteorologiche di più di 4000 aeroporti (messaggi METAR e TAF).

Le stazioni disponibili sono rappresentate dai dischi gialli e rossi sulla carta.

Puntare il mouse per vedere il nome della stazione.

Clicca sopra per visualizzare le osservazioni e previsioni meteorologiche.

Per cambiare la mappa : fare clic sui pulsanti verdi con una croce nera per ingrandire, il pulsante verde con un trattino per diminuire, o sulla freccia verde per le mappe adiacenti.


METAR-TAF: